Time;durP1;ratioP1;P1;durP2;ratioP2;P2;SDS_P1;SDS_P2;PMS_P1;PMS_P2;Temp;Humidity;BMP_temperature;BMP_pressure;BME280_temperature;BME280_humidity;BME280_pressure;Samples;Min_cycle;Max_cycle;Signal;HPM_P1;HPM_P2
2022/12/25 00:00:24;;;;;;;5.15;4.60;;;;;;;14.19;100.00;96575.88;5052123;28;20508;-48
2022/12/25 00:02:52;;;;;;;5.45;4.57;;;;;;;14.10;100.00;96574.19;5051628;28;20111;-46
2022/12/25 00:05:21;;;;;;;7.70;5.00;;;;;;;14.19;100.00;96559.97;5057315;28;20088;-44
2022/12/25 00:07:50;;;;;;;7.68;4.97;;;;;;;14.21;100.00;96571.22;5056477;28;20085;-43
2022/12/25 00:10:19;;;;;;;6.78;4.88;;;;;;;14.02;100.00;96567.06;5063766;28;20076;-44
2022/12/25 00:12:47;;;;;;;8.20;5.13;;;;;;;14.00;100.00;96569.03;5061574;28;20088;-47
2022/12/25 00:15:15;;;;;;;7.68;4.72;;;;;;;13.91;100.00;96562.91;5063699;28;20068;-42
2022/12/25 00:17:44;;;;;;;5.80;4.68;;;;;;;13.80;100.00;96576.47;5053272;28;20076;-43
2022/12/25 00:20:12;;;;;;;6.07;4.68;;;;;;;13.45;100.00;96582.78;5053108;28;20087;-49
2022/12/25 00:22:40;;;;;;;5.85;4.32;;;;;;;13.38;100.00;96587.06;5062370;28;20096;-48
2022/12/25 00:25:10;;;;;;;8.20;4.78;;;;;;;13.60;100.00;96585.69;5052055;28;20775;-46
2022/12/25 00:27:38;;;;;;;6.43;4.70;;;;;;;13.67;100.00;96594.66;5055541;28;20092;-50
2022/12/25 00:30:08;;;;;;;5.28;4.78;;;;;;;13.74;100.00;96593.03;5052406;28;20522;-47
2022/12/25 00:32:37;;;;;;;7.30;5.05;;;;;;;13.78;100.00;96589.88;5060223;28;20464;-43
2022/12/25 00:35:06;;;;;;;7.25;5.35;;;;;;;13.81;100.00;96594.03;5053560;28;20095;-49
2022/12/25 00:37:34;;;;;;;13.80;8.48;;;;;;;13.83;100.00;96597.34;5056172;28;20087;-50
2022/12/25 00:40:03;;;;;;;13.95;9.50;;;;;;;13.82;100.00;96595.69;5052701;28;20672;-45
2022/12/25 00:42:33;;;;;;;12.45;7.90;;;;;;;13.85;100.00;96590.06;5063359;28;20080;-53
2022/12/25 00:45:01;;;;;;;10.10;5.77;;;;;;;13.66;100.00;96595.63;5056788;28;23180;-43
2022/12/25 00:47:29;;;;;;;9.18;5.30;;;;;;;13.71;100.00;96588.03;5062456;28;20509;-54
2022/12/25 00:49:58;;;;;;;6.18;5.13;;;;;;;13.72;100.00;96590.50;5058143;28;20088;-49
2022/12/25 00:52:26;;;;;;;8.30;5.57;;;;;;;13.81;100.00;96596.69;5050862;28;20076;-49
2022/12/25 00:54:54;;;;;;;13.88;6.03;;;;;;;13.89;100.00;96596.69;5057062;28;20092;-45
2022/12/25 00:57:23;;;;;;;6.65;5.68;;;;;;;13.93;100.00;96584.78;5070006;28;20083;-47
2022/12/25 00:59:52;;;;;;;8.02;5.38;;;;;;;13.88;100.00;96584.44;5061690;28;20084;-44
2022/12/25 01:02:24;;;;;;;11.63;7.03;;;;;;;13.92;100.00;96587.59;5056604;28;20456;-54
2022/12/25 01:04:54;;;;;;;10.57;6.80;;;;;;;13.63;100.00;96588.84;5061730;28;20086;-47
2022/12/25 01:07:25;;;;;;;16.73;8.77;;;;;;;13.75;100.00;96595.50;5054514;28;20076;-46
2022/12/25 01:12:42;;;;;;;13.13;7.68;;;;;;;13.92;100.00;96595.56;5057020;28;20520;-44
2022/12/25 01:15:15;;;;;;;11.90;7.72;;;;;;;13.94;100.00;96597.06;5057831;28;20048;-45
2022/12/25 01:17:45;;;;;;;11.95;7.28;;;;;;;13.82;100.00;96594.84;5061868;28;20041;-47
2022/12/25 01:20:15;;;;;;;10.05;7.10;;;;;;;13.74;100.00;96587.72;5057049;28;20093;-49
2022/12/25 01:22:44;;;;;;;8.32;6.40;;;;;;;13.56;100.00;96594.91;5065765;28;20052;-51
2022/12/25 01:25:13;;;;;;;8.68;5.93;;;;;;;13.55;100.00;96596.75;5055735;28;20056;-47
2022/12/25 01:27:42;;;;;;;6.00;4.80;;;;;;;13.71;100.00;96598.63;5059617;28;20099;-44
2022/12/25 01:30:11;;;;;;;5.97;4.78;;;;;;;13.70;100.00;96597.00;5051534;28;20079;-43
2022/12/25 01:32:42;;;;;;;5.30;4.50;;;;;;;13.32;100.00;96607.09;5059606;28;20087;-47
2022/12/25 01:35:10;;;;;;;5.72;4.53;;;;;;;13.51;100.00;96603.34;5059107;28;20091;-49
2022/12/25 01:37:42;;;;;;;6.18;4.90;;;;;;;13.56;100.00;96594.91;5056659;28;20045;-43
2022/12/25 01:40:11;;;;;;;6.43;4.95;;;;;;;13.48;100.00;96601.84;5054600;28;20442;-48
2022/12/25 01:42:39;;;;;;;5.85;4.90;;;;;;;13.74;100.00;96593.03;5056796;28;20083;-51
2022/12/25 01:45:28;;;;;;;4.95;4.45;;;;;;;13.74;100.00;96595.66;5053717;28;20081;-44
2022/12/25 01:47:58;;;;;;;5.82;4.72;;;;;;;13.71;100.00;96599.47;5063994;28;20099;-51
2022/12/25 01:50:27;;;;;;;6.65;4.35;;;;;;;13.58;100.00;96608.84;5058452;28;20087;-46
2022/12/25 01:52:56;;;;;;;4.72;4.32;;;;;;;13.90;100.00;96602.81;5054131;28;20076;-49
2022/12/25 01:55:25;;;;;;;5.20;4.43;;;;;;;14.08;100.00;96589.47;5056510;28;20083;-49
2022/12/25 01:57:54;;;;;;;5.57;4.45;;;;;;;14.22;100.00;96596.78;5058187;28;20081;-45
2022/12/25 02:00:23;;;;;;;10.18;4.15;;;;;;;14.27;100.00;96597.09;5059425;28;20528;-46
2022/12/25 02:02:51;;;;;;;6.35;4.45;;;;;;;14.32;100.00;96588.66;5053608;28;20098;-52
2022/12/25 02:05:26;;;;;;;5.53;4.25;;;;;;;14.08;100.00;96590.28;5059189;28;20071;-48
2022/12/25 02:07:54;;;;;;;4.72;4.07;;;;;;;13.90;100.00;96593.06;5051212;28;20081;-44
2022/12/25 02:10:22;;;;;;;4.82;4.10;;;;;;;13.77;100.00;96587.41;5049087;28;20076;-47
2022/12/25 02:12:51;;;;;;;6.22;4.28;;;;;;;13.91;100.00;96592.06;5055057;28;20091;-42
2022/12/25 02:15:22;;;;;;;4.22;3.83;;;;;;;13.58;100.00;96598.25;5048831;28;20080;-42
2022/12/25 02:17:57;;;;;;;4.97;4.40;;;;;;;13.74;100.00;96583.25;5063440;28;20087;-45
2022/12/25 02:20:40;;;;;;;4.57;3.90;;;;;;;13.68;100.00;96586.53;5055064;28;20076;-43
2022/12/25 02:23:48;;;;;;;4.85;4.00;;;;;;;13.57;100.00;96591.31;5057682;28;20072;-44
2022/12/25 02:26:28;;;;;;;4.88;3.97;;;;;;;13.10;100.00;96604.94;5052270;28;20091;-45
2022/12/25 02:28:59;;;;;;;;;;;;;;;12.42;100.00;96598.53;5057811;28;20075;-46
2022/12/25 02:31:32;;;;;;;6.43;5.70;;;;;;;13.34;100.00;96599.81;5057018;28;19960;-48
2022/12/25 02:34:06;;;;;;;7.10;5.40;;;;;;;12.92;100.00;96592.59;5057993;28;20080;-42
2022/12/25 02:36:40;;;;;;;5.82;5.13;;;;;;;13.35;100.00;96600.63;5052281;28;20080;-44
2022/12/25 02:42:01;;;;;;;4.05;3.70;;;;;;;13.94;100.00;96593.59;5055187;28;20484;-43
2022/12/25 03:07:06;;;;;;;5.80;4.65;;;;;;;14.07;100.00;96578.00;5057001;28;20095;-44
2022/12/25 03:12:31;;;;;;;;;;;;;;;14.36;100.00;96579.38;5057386;28;20442;-45
2022/12/25 03:17:46;;;;;;;4.50;3.85;;;;;;;14.32;100.00;96570.91;5050450;28;20453;-47
2022/12/25 03:28:33;;;;;;;5.43;4.45;;;;;;;14.23;100.00;96570.06;5053207;28;20069;-49
2022/12/25 03:31:11;;;;;;;5.43;4.93;;;;;;;14.31;100.00;96571.91;5054130;28;20072;-46
2022/12/25 03:37:24;;;;;;;7.65;4.72;;;;;;;14.13;100.00;96565.91;5060498;28;20539;-49
2022/12/25 04:38:33;;;;;;;4.05;3.35;;;;;;;12.81;100.00;96540.75;5060369;28;20515;-42
2022/12/25 04:41:03;;;;;;;4.15;3.55;;;;;;;12.97;100.00;96541.81;5050588;28;20099;-41
2022/12/25 04:43:32;;;;;;;4.57;3.45;;;;;;;12.88;100.00;96535.66;5058592;28;20813;-47
2022/12/25 04:46:01;;;;;;;3.92;3.53;;;;;;;13.31;100.00;96520.66;5056204;28;20091;-45
2022/12/25 04:48:31;;;;;;;4.20;3.80;;;;;;;12.69;100.00;96526.13;5052565;28;20077;-44
2022/12/25 04:51:10;;;;;;;4.10;3.70;;;;;;;13.41;100.00;96528.47;5050647;28;20095;-43
2022/12/25 04:53:38;;;;;;;3.85;3.42;;;;;;;13.69;100.00;96524.59;5054841;28;20099;-44
2022/12/25 04:56:08;;;;;;;4.80;3.42;;;;;;;13.86;100.00;96524.63;5052216;28;20080;-46
2022/12/25 04:58:36;;;;;;;4.20;3.80;;;;;;;14.02;100.00;96524.66;5051819;28;20077;-48
2022/12/25 05:01:05;;;;;;;4.93;3.55;;;;;;;14.08;100.00;96533.78;5056612;28;20474;-45
2022/12/25 05:03:34;;;;;;;3.90;3.50;;;;;;;14.22;100.00;96522.50;5057110;28;20091;-50
2022/12/25 05:06:02;;;;;;;4.00;3.45;;;;;;;14.37;100.00;96515.53;5059699;28;20084;-49
2022/12/25 05:08:31;;;;;;;4.35;3.92;;;;;;;14.04;100.00;96521.81;5056421;28;20475;-43
2022/12/25 05:11:00;;;;;;;4.10;3.80;;;;;;;13.96;100.00;96517.34;5062590;28;20102;-48
2022/12/25 05:13:31;;;;;;;4.00;3.60;;;;;;;14.10;100.00;96519.34;5058725;28;20138;-44
2022/12/25 05:16:00;;;;;;;4.65;3.55;;;;;;;14.22;100.00;96523.34;5060356;28;20056;-48
2022/12/25 05:18:28;;;;;;;4.10;3.70;;;;;;;14.11;100.00;96525.47;5059440;28;20081;-49
2022/12/25 05:20:56;;;;;;;4.75;3.83;;;;;;;14.18;100.00;96526.50;5063514;28;20085;-47
2022/12/25 05:23:25;;;;;;;4.32;3.72;;;;;;;14.39;100.00;96520.69;5058103;28;20092;-43
2022/12/25 05:25:53;;;;;;;4.40;3.58;;;;;;;14.55;100.00;96520.69;5057644;28;20094;-50
2022/12/25 05:28:21;;;;;;;5.90;3.75;;;;;;;14.46;100.00;96524.31;5052451;28;20773;-46
2022/12/25 05:30:51;;;;;;;4.82;3.80;;;;;;;14.33;100.00;96538.09;5058568;28;20087;-43
2022/12/25 05:33:19;;;;;;;4.28;3.88;;;;;;;14.38;100.00;96529.63;5059899;28;20091;-45
2022/12/25 05:35:47;;;;;;;4.20;3.80;;;;;;;14.45;100.00;96523.50;5062563;28;20099;-49
2022/12/25 05:38:15;;;;;;;5.22;3.92;;;;;;;14.45;100.00;96512.88;5056549;28;20095;-48
2022/12/25 05:40:44;;;;;;;5.70;3.63;;;;;;;14.14;100.00;96520.69;5053246;28;20084;-46
2022/12/25 05:43:12;;;;;;;4.10;3.70;;;;;;;14.37;100.00;96526.13;5056244;28;20092;-49
2022/12/25 05:45:40;;;;;;;5.28;4.20;;;;;;;14.48;100.00;96532.94;5062453;28;20071;-46
2022/12/25 05:48:10;;;;;;;5.10;4.35;;;;;;;14.61;100.00;96529.81;5059905;28;20084;-48
2022/12/25 05:50:39;;;;;;;5.10;4.60;;;;;;;14.57;100.00;96517.88;5057306;28;20108;-44
2022/12/25 05:53:08;;;;;;;5.28;4.57;;;;;;;14.51;100.00;96519.34;5049578;28;20076;-49
2022/12/25 05:55:37;;;;;;;5.15;4.60;;;;;;;14.47;100.00;96513.53;5055675;28;20080;-47
2022/12/25 05:58:06;;;;;;;6.90;5.63;;;;;;;14.43;100.00;96506.91;5049638;28;20120;-44
2022/12/25 06:00:34;;;;;;;8.23;6.68;;;;;;;14.39;100.00;96513.56;5055605;28;20060;-53
2022/12/25 06:03:03;;;;;;;7.45;5.97;;;;;;;14.41;100.00;96502.75;5054686;28;20086;-42
2022/12/25 06:05:33;;;;;;;5.97;5.38;;;;;;;14.42;100.00;96510.56;5059968;28;20781;-44
2022/12/25 06:08:01;;;;;;;5.97;5.37;;;;;;;14.35;100.00;96514.03;5054804;28;20080;-48
2022/12/25 06:10:30;;;;;;;6.07;5.47;;;;;;;14.25;100.00;96514.22;5055904;28;20088;-43
2022/12/25 06:12:58;;;;;;;6.88;5.38;;;;;;;14.25;100.00;96511.56;5049666;28;20747;-45
2022/12/25 06:15:26;;;;;;;7.00;5.35;;;;;;;14.20;100.00;96512.03;5049976;28;20075;-50
2022/12/25 06:17:55;;;;;;;6.47;5.53;;;;;;;14.28;100.00;96523.66;5059207;28;20088;-48
2022/12/25 06:20:23;;;;;;;6.72;5.88;;;;;;;14.30;100.00;96527.81;5058286;28;20072;-47
2022/12/25 06:22:53;;;;;;;6.80;5.43;;;;;;;14.16;100.00;96521.34;5062149;28;20542;-47
2022/12/25 06:25:21;;;;;;;8.77;5.60;;;;;;;14.37;100.00;96520.00;5052607;28;20084;-52
2022/12/25 06:27:50;;;;;;;6.97;5.53;;;;;;;14.42;100.00;96520.34;5054095;28;20079;-47
2022/12/25 06:30:18;;;;;;;6.35;5.70;;;;;;;14.43;100.00;96514.88;5049784;28;20068;-46
2022/12/25 06:32:46;;;;;;;7.75;5.70;;;;;;;14.48;100.00;96515.19;5055548;28;20095;-44
2022/12/25 06:35:15;;;;;;;7.32;5.63;;;;;;;14.53;100.00;96519.22;5052696;28;20075;-44
2022/12/25 06:37:43;;;;;;;6.38;5.55;;;;;;;14.41;100.00;96508.06;5053735;28;20470;-50
2022/12/25 06:40:14;;;;;;;6.97;5.80;;;;;;;14.19;100.00;96517.53;5050416;28;20429;-50
2022/12/25 06:42:42;;;;;;;7.50;6.38;;;;;;;14.17;100.00;96517.69;5059429;28;20084;-48
2022/12/25 06:45:11;;;;;;;6.95;5.85;;;;;;;14.23;100.00;96516.19;5051512;28;20084;-45
2022/12/25 06:47:39;;;;;;;6.22;5.63;;;;;;;14.29;100.00;96522.69;5047199;28;20079;-44
2022/12/25 06:50:08;;;;;;;8.90;7.32;;;;;;;14.28;100.00;96513.03;5058169;28;20076;-43
2022/12/25 06:52:36;;;;;;;8.52;7.63;;;;;;;14.35;100.00;96514.88;5055958;28;20482;-50
2022/12/25 06:55:05;;;;;;;7.65;6.57;;;;;;;13.42;100.00;96517.75;5055092;28;20088;-48
2022/12/25 06:57:35;;;;;;;8.02;6.00;;;;;;;13.22;100.00;96519.78;5055470;28;20083;-45
2022/12/25 07:00:04;;;;;;;9.23;6.15;;;;;;;13.26;100.00;96518.50;5048564;28;20084;-46
2022/12/25 07:02:33;;;;;;;7.20;6.50;;;;;;;13.01;100.00;96520.19;5049491;28;20103;-47
2022/12/25 07:05:03;;;;;;;10.50;6.65;;;;;;;13.61;100.00;96513.16;5057957;28;20084;-45
2022/12/25 07:07:31;;;;;;;7.47;6.78;;;;;;;13.47;100.00;96519.91;5048611;28;20080;-47
2022/12/25 07:10:00;;;;;;;7.35;6.65;;;;;;;13.00;100.00;96515.03;5055399;28;20072;-44
2022/12/25 07:12:28;;;;;;;7.63;6.82;;;;;;;12.51;100.00;96520.88;5052673;28;20555;-44
2022/12/25 07:14:57;;;;;;;7.60;6.90;;;;;;;12.90;100.00;96519.63;5048869;28;20076;-43
2022/12/25 07:17:26;;;;;;;10.23;7.50;;;;;;;12.45;100.00;96515.38;5052258;28;20079;-48
2022/12/25 07:19:55;;;;;;;9.32;8.02;;;;;;;13.48;100.00;96510.94;5055160;28;20184;-45
2022/12/25 07:22:23;;;;;;;7.40;6.68;;;;;;;13.28;100.00;96508.59;5056130;28;20090;-47
2022/12/25 07:24:52;;;;;;;8.60;7.32;;;;;;;13.78;100.00;96512.19;5053667;28;20088;-48
2022/12/25 07:27:20;;;;;;;9.07;7.03;;;;;;;13.75;100.00;96505.38;5053421;28;20080;-49
2022/12/25 07:29:49;;;;;;;7.65;6.85;;;;;;;13.96;100.00;96501.44;5061026;28;20461;-45
2022/12/25 07:32:18;;;;;;;8.82;7.00;;;;;;;13.88;100.00;96504.09;5050391;28;20088;-48
2022/12/25 07:34:47;;;;;;;8.70;6.73;;;;;;;14.24;100.00;96493.97;5059438;28;20091;-46
2022/12/25 07:37:15;;;;;;;8.38;6.82;;;;;;;14.27;100.00;96500.78;5059438;28;20481;-43
2022/12/25 07:39:43;;;;;;;7.60;6.78;;;;;;;14.37;100.00;96498.78;5049358;28;20095;-46
2022/12/25 07:42:11;;;;;;;7.38;6.22;;;;;;;14.61;100.00;96501.44;5054238;28;20551;-46
2022/12/25 07:44:40;;;;;;;7.32;6.32;;;;;;;14.38;100.00;96500.44;5049422;28;20088;-44
2022/12/25 07:47:08;;;;;;;6.85;6.15;;;;;;;13.94;100.00;96506.09;5068158;28;20084;-46
2022/12/25 07:49:38;;;;;;;8.23;6.78;;;;;;;14.39;100.00;96508.25;5059784;28;20084;-44
2022/12/25 07:52:06;;;;;;;7.80;6.20;;;;;;;14.51;100.00;96510.56;5067844;28;20090;-43
2022/12/25 07:54:34;;;;;;;7.35;6.03;;;;;;;14.55;100.00;96506.59;5058911;28;20064;-45
2022/12/25 07:57:02;;;;;;;6.28;5.68;;;;;;;13.97;100.00;96498.63;5069896;28;20469;-49
2022/12/25 07:59:31;;;;;;;6.00;5.35;;;;;;;14.57;100.00;96505.44;5057527;28;20091;-49
2022/12/25 08:01:59;;;;;;;6.47;5.82;;;;;;;14.91;100.00;96504.38;5057774;28;20087;-45
2022/12/25 08:04:28;;;;;;;8.93;5.75;;;;;;;14.79;100.00;96514.50;5056544;28;20085;-51
2022/12/25 08:06:57;;;;;;;6.93;5.90;;;;;;;14.68;100.00;96515.69;5065612;28;20102;-47
2022/12/25 08:09:25;;;;;;;7.80;5.80;;;;;;;14.42;100.00;96510.56;5057760;28;20088;-42
2022/12/25 08:11:54;;;;;;;7.05;5.70;;;;;;;14.95;100.00;96509.16;5054481;28;20092;-53
2022/12/25 08:14:22;;;;;;;7.10;5.82;;;;;;;15.06;100.00;96499.97;5060844;28;20081;-50
2022/12/25 08:16:50;;;;;;;6.18;5.45;;;;;;;15.06;100.00;96496.50;5058048;28;20088;-47
2022/12/25 08:19:19;;;;;;;8.90;5.68;;;;;;;14.90;100.00;96495.56;5052843;28;20481;-44
2022/12/25 08:21:47;;;;;;;6.43;5.80;;;;;;;14.98;100.00;96492.06;5056990;28;20450;-50
2022/12/25 08:24:17;;;;;;;6.38;5.70;;;;;;;14.84;100.00;96498.91;5063067;28;20477;-42
2022/12/25 08:26:45;;;;;;;6.97;5.77;;;;;;;14.59;100.00;96494.63;5056363;28;20088;-47
2022/12/25 08:29:13;;;;;;;7.45;5.93;;;;;;;14.44;100.00;96497.13;5057309;28;20076;-47
2022/12/25 08:31:43;;;;;;;5.63;5.05;;;;;;;14.29;100.00;96483.72;5054957;28;20627;-48
2022/12/25 08:34:13;;;;;;;6.10;5.50;;;;;;;14.56;100.00;96501.13;5058006;28;20119;-46
2022/12/25 08:36:42;;;;;;;6.53;5.25;;;;;;;15.40;100.00;96504.16;5058062;28;20068;-44
2022/12/25 08:39:10;;;;;;;5.43;4.93;;;;;;;15.74;100.00;96503.84;5056227;28;20526;-46
2022/12/25 08:41:40;;;;;;;5.45;4.75;;;;;;;14.60;100.00;96505.09;5051408;28;20084;-45
2022/12/25 08:44:11;;;;;;;5.65;4.95;;;;;;;15.17;100.00;96496.13;5055032;28;20687;-47
2022/12/25 08:46:40;;;;;;;5.30;4.75;;;;;;;15.52;100.00;96488.66;5063740;28;20099;-48
2022/12/25 08:49:08;;;;;;;6.20;4.82;;;;;;;14.52;100.00;96499.81;5057476;28;20095;-46
2022/12/25 08:51:37;;;;;;;5.07;4.53;;;;;;;15.19;100.00;96489.63;5060804;28;20064;-46
2022/12/25 08:54:05;;;;;;;6.00;5.05;;;;;;;15.25;100.00;96493.44;5060272;28;20091;-43
2022/12/25 08:56:35;;;;;;;6.03;4.57;;;;;;;15.04;100.00;96487.91;5058683;28;20084;-43
2022/12/25 08:59:04;;;;;;;6.03;5.00;;;;;;;15.79;100.00;96490.00;5059137;28;20083;-45
2022/12/25 09:01:33;;;;;;;6.05;4.95;;;;;;;15.54;100.00;96484.81;5050835;28;20076;-47
2022/12/25 09:04:01;;;;;;;5.50;4.90;;;;;;;15.66;100.00;96486.13;5063257;28;20080;-43
2022/12/25 09:06:30;;;;;;;6.63;5.93;;;;;;;15.05;100.00;96487.72;5057437;28;20092;-46
2022/12/25 09:08:58;;;;;;;6.20;5.60;;;;;;;15.41;100.00;96481.91;5061457;28;20468;-45
2022/12/25 09:11:26;;;;;;;5.15;4.65;;;;;;;14.92;100.00;96485.59;5059905;28;20076;-43
2022/12/25 09:13:54;;;;;;;6.40;4.78;;;;;;;15.27;100.00;96486.13;5059841;28;20641;-44
2022/12/25 09:16:24;;;;;;;5.25;4.68;;;;;;;15.53;100.00;96479.69;5054987;28;20110;-41
2022/12/25 09:18:52;;;;;;;5.13;4.63;;;;;;;15.35;100.00;96486.09;5057355;28;20099;-42
2022/12/25 09:21:21;;;;;;;5.25;4.65;;;;;;;15.31;100.00;96483.94;5051205;28;20278;-41
2022/12/25 09:23:49;;;;;;;6.68;4.55;;;;;;;14.87;100.00;96479.97;5054323;28;20092;-47
2022/12/25 09:26:18;;;;;;;5.20;4.70;;;;;;;15.26;100.00;96479.16;5058712;28;20152;-47
2022/12/25 09:28:47;;;;;;;6.15;5.00;;;;;;;15.11;100.00;96471.09;5051878;28;20080;-43
2022/12/25 09:31:20;;;;;;;5.20;4.70;;;;;;;15.32;100.00;96481.13;5053842;28;20080;-49
2022/12/25 09:33:50;;;;;;;5.60;5.00;;;;;;;14.91;100.00;96488.44;5062294;28;20092;-51
2022/12/25 09:36:22;;;;;;;7.68;4.78;;;;;;;15.65;100.00;96478.28;5054357;28;20083;-44
2022/12/25 09:38:50;;;;;;;5.10;4.60;;;;;;;15.83;100.00;96475.38;5056591;28;20081;-47
2022/12/25 09:41:23;;;;;;;5.15;4.63;;;;;;;16.19;100.00;96474.75;5059345;28;20091;-46
2022/12/25 09:43:54;;;;;;;6.03;5.10;;;;;;;16.37;100.00;96468.09;5051205;28;20069;-46
2022/12/25 09:46:26;;;;;;;7.68;4.65;;;;;;;16.33;100.00;96464.16;5051700;28;20258;-51
2022/12/25 09:49:11;;;;;;;9.00;5.60;;;;;;;16.87;100.00;96455.16;5058235;28;20076;-43
2022/12/25 09:51:41;;;;;;;5.47;4.05;;;;;;;16.64;100.00;96451.72;5059516;28;20080;-43
2022/12/25 09:54:14;;;;;;;4.87;3.67;;;;;;;16.28;100.00;96453.22;5056694;28;20536;-44
2022/12/25 09:56:42;;;;;;;6.25;4.05;;;;;;;16.57;100.00;96455.09;5061518;28;20096;-47
2022/12/25 09:59:18;;;;;;;5.05;4.22;;;;;;;16.52;100.00;96454.00;5055472;28;20989;-47
2022/12/25 10:01:58;;;;;;;4.05;3.65;;;;;;;16.98;100.00;96453.88;5062652;28;20072;-43
2022/12/25 10:04:41;;;;;;;5.88;3.92;;;;;;;17.22;100.00;96460.72;5059677;28;20083;-43
2022/12/25 10:07:17;;;;;;;6.68;3.90;;;;;;;17.52;100.00;96454.31;5059635;28;20552;-42
2022/12/25 10:09:57;;;;;;;4.45;3.60;;;;;;;16.88;100.00;96461.31;5055027;28;20085;-46
2022/12/25 10:12:35;;;;;;;3.87;3.43;;;;;;;17.38;100.00;96457.88;5054443;28;20589;-47
2022/12/25 10:15:12;;;;;;;3.90;3.35;;;;;;;17.55;100.00;96459.28;5055670;28;20084;-46
2022/12/25 10:17:47;;;;;;;3.72;3.33;;;;;;;17.57;100.00;96453.75;5056006;28;20084;-45
2022/12/25 10:20:23;;;;;;;4.63;3.70;;;;;;;17.73;100.00;96453.53;5060051;28;20085;-44
2022/12/25 10:22:53;;;;;;;4.78;3.58;;;;;;;18.05;100.00;96459.41;5057819;28;20080;-45
2022/12/25 10:25:24;;;;;;;5.30;4.10;;;;;;;18.00;100.00;96459.97;5060087;28;20072;-43
2022/12/25 10:27:56;;;;;;;5.78;4.30;;;;;;;18.06;100.00;96457.53;5060044;28;20076;-42
2022/12/25 10:30:26;;;;;;;5.88;4.53;;;;;;;18.11;100.00;96450.63;5051825;28;20068;-51
2022/12/25 10:32:55;;;;;;;5.35;4.80;;;;;;;18.24;100.00;96445.41;5057523;28;20083;-41
2022/12/25 10:35:27;;;;;;;5.15;4.22;;;;;;;17.61;100.00;96443.53;5052470;28;20080;-47
2022/12/25 10:37:59;;;;;;;4.80;4.28;;;;;;;17.29;100.00;96434.97;5055022;28;20072;-43
2022/12/25 10:40:36;;;;;;;4.85;4.07;;;;;;;17.40;100.00;96421.16;5049194;28;20088;-48
2022/12/25 10:43:08;;;;;;;4.30;3.90;;;;;;;16.72;100.00;96417.81;5062825;28;20083;-47
2022/12/25 10:45:44;;;;;;;3.80;3.33;;;;;;;16.88;100.00;96408.03;5056187;28;20080;-43
2022/12/25 10:48:22;;;;;;;3.83;3.30;;;;;;;16.50;100.00;96408.09;5061064;28;20188;-45
2022/12/25 10:50:52;;;;;;;4.00;3.60;;;;;;;17.55;100.00;96407.81;5053826;28;20088;-47
2022/12/25 10:53:24;;;;;;;4.35;3.45;;;;;;;17.12;100.00;96399.72;5060448;28;20072;-44
2022/12/25 10:55:57;;;;;;;5.15;3.33;;;;;;;16.94;100.00;96409.97;5061558;28;20088;-50
2022/12/25 10:58:25;;;;;;;4.75;3.55;;;;;;;17.17;100.00;96408.00;5050566;28;20080;-42
2022/12/25 11:00:56;;;;;;;5.35;3.30;;;;;;;16.16;100.00;96413.94;5052685;28;20084;-49
2022/12/25 11:03:28;;;;;;;4.22;3.60;;;;;;;16.65;100.00;96402.78;5051704;28;20073;-44
2022/12/25 11:05:58;;;;;;;4.13;3.72;;;;;;;16.89;100.00;96393.69;5059767;28;20088;-45
2022/12/25 11:08:28;;;;;;;5.03;3.63;;;;;;;16.53;100.00;96394.44;5054405;28;20469;-49
2022/12/25 11:10:58;;;;;;;3.67;3.33;;;;;;;16.88;100.00;96386.72;5049366;28;20548;-45
2022/12/25 11:13:28;;;;;;;;;;;;;;;16.18;100.00;96393.31;5061912;28;20484;-45
2022/12/25 11:16:05;;;;;;;4.22;3.58;;;;;;;16.38;100.00;96389.94;5049715;28;19978;-45
2022/12/25 11:18:35;;;;;;;5.72;4.20;;;;;;;16.61;100.00;96381.00;5058870;28;20080;-46
2022/12/25 11:21:16;;;;;;;7.10;5.07;;;;;;;16.81;100.00;96384.78;5056172;28;20495;-49
2022/12/25 11:23:46;;;;;;;4.95;4.40;;;;;;;17.38;100.00;96382.38;5057070;28;20517;-48
2022/12/25 11:26:15;;;;;;;4.85;4.35;;;;;;;16.91;100.00;96381.84;5058062;28;20103;-45
2022/12/25 11:28:45;;;;;;;5.80;4.55;;;;;;;16.74;100.00;96375.03;5052612;28;20100;-48
2022/12/25 11:31:17;;;;;;;4.88;4.38;;;;;;;16.65;100.00;96374.31;5057175;28;20087;-50
2022/12/25 11:33:52;;;;;;;8.02;3.40;;;;;;;17.27;100.00;96363.22;5059571;28;20081;-47
2022/12/25 11:36:27;;;;;;;5.10;3.78;;;;;;;17.48;100.00;96362.41;5065111;28;20083;-43
2022/12/25 11:38:55;;;;;;;4.30;3.90;;;;;;;17.31;100.00;96359.16;5058489;28;20089;-46
2022/12/25 11:41:28;;;;;;;3.65;3.28;;;;;;;17.41;100.00;96358.00;5061033;28;20087;-51
2022/12/25 11:43:59;;;;;;;4.90;3.13;;;;;;;17.75;100.00;96358.13;5052235;28;20076;-49
2022/12/25 11:46:30;;;;;;;5.93;2.85;;;;;;;17.44;100.00;96353.13;5054946;28;20092;-44
2022/12/25 11:49:00;;;;;;;3.90;2.90;;;;;;;17.14;100.00;96349.75;5061012;28;20083;-45
2022/12/25 11:51:33;;;;;;;2.70;2.30;;;;;;;16.95;100.00;96347.69;5065484;28;20088;-43
2022/12/25 11:54:07;;;;;;;4.30;2.97;;;;;;;17.22;100.00;96348.81;5059405;28;20484;-44
2022/12/25 11:56:36;;;;;;;3.88;2.97;;;;;;;17.92;100.00;96349.88;5055965;28;20103;-42
2022/12/25 11:59:07;;;;;;;7.63;4.03;;;;;;;18.02;100.00;96345.84;5053422;28;20088;-49
2022/12/25 12:01:44;;;;;;;3.55;2.90;;;;;;;17.23;100.00;96337.13;5058833;28;20084;-45
2022/12/25 12:04:18;;;;;;;3.63;3.03;;;;;;;17.32;100.00;96343.97;5055162;28;20055;-51
2022/12/25 12:06:58;;;;;;;3.03;2.72;;;;;;;17.37;100.00;96327.41;5058140;28;20091;-44
2022/12/25 12:09:36;;;;;;;2.97;2.50;;;;;;;17.41;100.00;96328.69;5056652;28;20083;-50
2022/12/25 12:12:08;;;;;;;2.65;2.45;;;;;;;17.67;100.00;96318.25;5059597;28;20560;-43
2022/12/25 12:14:47;;;;;;;2.95;2.53;;;;;;;17.21;100.00;96304.53;5063182;28;20091;-46
2022/12/25 12:17:17;;;;;;;3.50;2.60;;;;;;;17.92;100.00;96310.69;5052356;28;20088;-52
2022/12/25 12:19:45;;;;;;;4.40;2.75;;;;;;;17.56;100.00;96305.47;5064714;28;20088;-43
2022/12/25 12:22:20;;;;;;;2.95;2.63;;;;;;;18.10;100.00;96299.53;5063210;28;20080;-49
2022/12/25 12:24:53;;;;;;;2.70;2.50;;;;;;;17.81;100.00;96308.56;5059224;28;20076;-48
2022/12/25 12:27:25;;;;;;;2.85;2.50;;;;;;;17.86;100.00;96302.63;5055884;28;20091;-49
2022/12/25 12:29:55;;;;;;;2.65;2.30;;;;;;;18.18;100.00;96290.53;5064478;28;20080;-49
2022/12/25 12:32:30;;;;;;;3.45;2.70;;;;;;;18.37;100.00;96286.31;5054851;28;20489;-51
2022/12/25 12:34:58;;;;;;;3.15;2.50;;;;;;;17.63;100.00;96293.00;5053506;28;20085;-50
2022/12/25 12:37:31;;;;;;;2.67;2.47;;;;;;;17.67;100.00;96288.91;5061632;28;20080;-48
2022/12/25 12:39:59;;;;;;;3.10;2.80;;;;;;;17.94;100.00;96292.66;5060859;28;20202;-45
2022/12/25 12:42:31;;;;;;;3.15;2.72;;;;;;;18.52;100.00;96281.69;5061243;28;20084;-45
2022/12/25 12:45:09;;;;;;;6.47;3.38;;;;;;;18.09;100.00;96278.38;5055488;28;20080;-47
2022/12/25 12:47:39;;;;;;;3.97;3.08;;;;;;;18.26;100.00;96283.19;5064551;28;20091;-47
2022/12/25 12:50:23;;;;;;;5.65;3.60;;;;;;;18.20;100.00;96275.13;5054472;28;20091;-47
2022/12/25 12:52:53;;;;;;;5.55;3.67;;;;;;;18.70;100.00;96273.94;5054467;28;20088;-44
2022/12/25 12:55:28;;;;;;;4.22;3.47;;;;;;;18.54;100.00;96268.94;5057817;28;20080;-45
2022/12/25 12:58:00;;;;;;;4.88;3.70;;;;;;;18.21;100.00;96269.63;5050978;28;20083;-43
2022/12/25 13:00:35;;;;;;;4.53;3.78;;;;;;;18.50;100.00;96271.19;5056703;28;20469;-43
2022/12/25 13:03:26;;;;;;;5.53;4.28;;;;;;;18.18;100.00;96269.19;5053252;28;20081;-44
2022/12/25 13:05:58;;;;;;;5.95;4.10;;;;;;;17.80;100.00;96264.22;5065335;28;20547;-44
2022/12/25 13:08:37;;;;;;;5.47;4.47;;;;;;;17.82;100.00;96275.50;5055849;28;20095;-47
2022/12/25 13:11:12;;;;;;;5.05;4.55;;;;;;;18.06;100.00;96273.41;5051388;28;20458;-49
2022/12/25 13:13:43;;;;;;;6.18;4.95;;;;;;;17.90;100.00;96264.72;5057934;28;20464;-41
2022/12/25 13:16:17;;;;;;;7.65;5.00;;;;;;;18.11;100.00;96271.81;5057607;28;20096;-42
2022/12/25 13:18:45;;;;;;;6.90;5.35;;;;;;;17.50;100.00;96269.72;5060192;28;20088;-41
2022/12/25 13:21:17;;;;;;;6.18;4.88;;;;;;;17.85;100.00;96272.47;5051760;28;20095;-43
2022/12/25 13:23:47;;;;;;;7.40;5.10;;;;;;;17.61;100.00;96272.88;5054796;28;20084;-47